createdAt,value
2023-01-25T00:00:00.891Z,102860.97
2023-01-25T00:02:28.400Z,102864.47
2023-01-25T00:04:54.930Z,102858.94
2023-01-25T00:07:21.611Z,102856.03
2023-01-25T00:09:48.047Z,102857.50
2023-01-25T00:12:14.520Z,102852.34
2023-01-25T00:14:40.975Z,102851.13
2023-01-25T00:17:07.406Z,102850.47
2023-01-25T00:19:33.975Z,102853.16
2023-01-25T00:22:00.450Z,102852.69
2023-01-25T00:24:26.959Z,102850.56
2023-01-25T00:26:53.387Z,102845.38
2023-01-25T00:29:19.943Z,102848.88
2023-01-25T00:31:58.729Z,102842.88
2023-01-25T00:34:25.363Z,102839.09
2023-01-25T00:36:56.905Z,102838.69
2023-01-25T00:39:25.112Z,102840.63
2023-01-25T00:41:51.549Z,102841.13
2023-01-25T00:44:18.031Z,102845.56
2023-01-25T00:46:44.678Z,102849.75
2023-01-25T00:49:22.705Z,102852.16
2023-01-25T00:51:49.868Z,102842.56
2023-01-25T00:54:16.998Z,102846.41
2023-01-25T00:56:43.643Z,102840.31
2023-01-25T00:59:10.610Z,102846.81
2023-01-25T01:01:37.430Z,102839.59
2023-01-25T01:04:05.698Z,102839.97
2023-01-25T01:06:35.588Z,102848.00
2023-01-25T01:09:02.890Z,102847.06
2023-01-25T01:11:31.416Z,102846.88
2023-01-25T01:13:58.771Z,102845.56
2023-01-25T01:16:26.208Z,102842.03
2023-01-25T01:18:53.323Z,102842.75
2023-01-25T01:21:20.532Z,102838.03
2023-01-25T01:23:48.197Z,102838.53
2023-01-25T01:26:19.232Z,102836.94
2023-01-25T01:28:46.303Z,102835.19
2023-01-25T01:31:24.110Z,102833.00
2023-01-25T01:33:52.543Z,102836.00
2023-01-25T01:36:20.719Z,102820.72
2023-01-25T01:38:47.841Z,102824.19
2023-01-25T01:41:15.457Z,102815.00
2023-01-25T01:43:42.925Z,102804.94
2023-01-25T01:46:27.687Z,102808.53
2023-01-25T01:49:38.299Z,102798.69
2023-01-25T01:52:11.093Z,102799.28
2023-01-25T01:54:55.320Z,102798.06
2023-01-25T01:57:32.347Z,102790.13
2023-01-25T02:00:04.875Z,102793.03
2023-01-25T02:02:31.385Z,102781.25
2023-01-25T02:05:00.988Z,102776.84
2023-01-25T02:07:35.955Z,102770.38
2023-01-25T02:10:05.663Z,102756.81
2023-01-25T02:12:32.420Z,102755.97
2023-01-25T02:14:58.923Z,102759.38
2023-01-25T02:17:34.282Z,102757.66
2023-01-25T02:20:37.744Z,102760.94
2023-01-25T02:23:06.980Z,102755.81
2023-01-25T02:25:33.385Z,102752.53
2023-01-25T02:28:07.295Z,102751.47
2023-01-25T02:30:34.472Z,102752.72
2023-01-25T02:33:01.072Z,102741.41
2023-01-25T02:36:09.078Z,102743.25
2023-01-25T02:38:38.849Z,102743.44
2023-01-25T02:41:13.689Z,102735.88
2023-01-25T02:43:40.104Z,102740.19
2023-01-25T02:46:31.847Z,102734.63
2023-01-25T02:48:59.920Z,102736.19
2023-01-25T02:51:29.758Z,102735.34
2023-01-25T02:53:57.252Z,102729.03
2023-01-25T02:56:23.841Z,102734.22
2023-01-25T02:58:50.590Z,102733.97
2023-01-25T03:01:17.373Z,102739.97
2023-01-25T03:03:43.940Z,102731.94
2023-01-25T03:06:10.889Z,102727.81
2023-01-25T03:08:37.344Z,102732.53
2023-01-25T03:11:06.248Z,102732.53
2023-01-25T03:13:34.096Z,102728.72
2023-01-25T03:16:07.698Z,102719.78
2023-01-25T03:18:34.706Z,102718.13
2023-01-25T03:21:20.145Z,102720.88
2023-01-25T03:23:47.909Z,102717.44
2023-01-25T03:26:20.602Z,102711.25
2023-01-25T03:28:47.148Z,102705.53
2023-01-25T03:31:15.357Z,102701.19
2023-01-25T03:33:42.402Z,102704.41
2023-01-25T03:36:10.446Z,102700.63
2023-01-25T03:38:37.488Z,102698.16
2023-01-25T03:41:04.341Z,102700.31
2023-01-25T03:43:30.852Z,102701.50
2023-01-25T03:45:59.504Z,102697.63
2023-01-25T03:48:27.390Z,102699.56
2023-01-25T03:50:58.264Z,102685.34
2023-01-25T03:53:29.830Z,102686.94
2023-01-25T03:55:58.075Z,102693.41
2023-01-25T03:58:25.223Z,102691.38
2023-01-25T04:00:55.320Z,102692.19
2023-01-25T04:03:22.235Z,102685.56
2023-01-25T04:05:48.960Z,102696.09
2023-01-25T04:08:15.480Z,102689.47
2023-01-25T04:10:41.927Z,102689.69
2023-01-25T04:13:08.834Z,102687.09
2023-01-25T04:15:35.658Z,102688.00
2023-01-25T04:18:02.306Z,102683.13
2023-01-25T04:20:28.842Z,102686.09
2023-01-25T04:22:55.224Z,102675.75
2023-01-25T04:25:21.675Z,102676.41
2023-01-25T04:27:49.615Z,102664.03
2023-01-25T04:30:16.298Z,102669.19
2023-01-25T04:32:43.144Z,102664.56
2023-01-25T04:35:09.970Z,102660.88
2023-01-25T04:37:36.705Z,102665.50
2023-01-25T04:40:04.114Z,102668.38
2023-01-25T04:42:30.669Z,102671.25
2023-01-25T04:44:57.068Z,102660.44
2023-01-25T04:47:23.502Z,102656.06
2023-01-25T04:49:49.911Z,102656.16
2023-01-25T04:52:16.349Z,102662.38
2023-01-25T04:54:42.923Z,102658.19
2023-01-25T04:57:09.369Z,102652.00
2023-01-25T04:59:35.752Z,102653.66
2023-01-25T05:02:02.223Z,102653.50
2023-01-25T05:04:28.636Z,102646.00
2023-01-25T05:06:55.123Z,102643.31
2023-01-25T05:09:21.611Z,102638.53
2023-01-25T05:11:48.026Z,102650.06
2023-01-25T05:14:14.481Z,102647.75
2023-01-25T05:16:40.914Z,102648.09
2023-01-25T05:19:09.817Z,102648.28
2023-01-25T05:21:54.828Z,102650.34
2023-01-25T05:24:21.290Z,102651.16
2023-01-25T05:27:06.100Z,102643.25
2023-01-25T05:29:36.255Z,102642.47
2023-01-25T05:32:05.085Z,102641.41
2023-01-25T05:34:31.927Z,102642.66
2023-01-25T05:36:58.631Z,102633.91
2023-01-25T05:39:25.163Z,102635.19
2023-01-25T05:41:52.122Z,102639.38
2023-01-25T05:44:18.990Z,102636.13
2023-01-25T05:46:45.698Z,102633.16
2023-01-25T05:49:12.642Z,102632.34
2023-01-25T05:51:39.707Z,102639.72
2023-01-25T05:54:07.203Z,102635.28
2023-01-25T05:56:34.266Z,102635.09
2023-01-25T05:59:17.278Z,102634.91
2023-01-25T06:01:43.945Z,102636.22
2023-01-25T06:04:14.899Z,102629.00
2023-01-25T06:06:41.524Z,102630.50
2023-01-25T06:09:08.027Z,102623.84
2023-01-25T06:11:34.401Z,102632.78
2023-01-25T06:14:00.832Z,102631.28
2023-01-25T06:16:27.626Z,102627.09
2023-01-25T06:18:54.020Z,102630.53
2023-01-25T06:21:20.492Z,102621.50
2023-01-25T06:23:46.910Z,102632.56
2023-01-25T06:26:15.497Z,102631.63
2023-01-25T06:28:42.086Z,102631.63
2023-01-25T06:31:11.214Z,102623.91
2023-01-25T06:33:38.469Z,102625.22
2023-01-25T06:36:08.003Z,102633.69
2023-01-25T06:38:37.551Z,102626.84
2023-01-25T06:41:06.543Z,102621.41
2023-01-25T06:43:34.098Z,102613.00
2023-01-25T06:46:01.915Z,102616.59
2023-01-25T06:48:29.690Z,102617.91
2023-01-25T06:50:58.354Z,102615.78
2023-01-25T06:53:30.541Z,102623.81
2023-01-25T06:56:18.177Z,102619.66
2023-01-25T06:58:45.627Z,102608.94
2023-01-25T07:01:19.806Z,102616.97
2023-01-25T07:03:51.209Z,102607.66
2023-01-25T07:06:17.943Z,102598.81
2023-01-25T07:08:44.395Z,102601.50
2023-01-25T07:11:13.915Z,102594.91
2023-01-25T07:13:45.774Z,102594.72
2023-01-25T07:16:14.868Z,102596.44
2023-01-25T07:18:42.163Z,102594.25
2023-01-25T07:21:13.108Z,102593.78
2023-01-25T07:23:40.124Z,102595.00
2023-01-25T07:26:10.106Z,102594.00
2023-01-25T07:28:36.521Z,102590.91
2023-01-25T07:31:07.010Z,102584.81
2023-01-25T07:33:34.236Z,102580.94
2023-01-25T07:36:06.302Z,102575.94
2023-01-25T07:38:32.752Z,102584.28
2023-01-25T07:41:00.749Z,102582.81
2023-01-25T07:43:27.541Z,102575.84
2023-01-25T07:45:54.253Z,102570.94
2023-01-25T07:48:21.154Z,102574.56
2023-01-25T07:50:49.605Z,102571.44
2023-01-25T07:53:16.959Z,102564.22
2023-01-25T07:55:43.403Z,102566.63
2023-01-25T07:58:12.981Z,102558.78
2023-01-25T08:00:40.287Z,102557.66
2023-01-25T08:03:08.028Z,102553.03
2023-01-25T08:05:34.364Z,102549.13
2023-01-25T08:08:00.816Z,102549.38
2023-01-25T08:10:27.216Z,102560.38
2023-01-25T08:12:53.785Z,102560.31
2023-01-25T08:15:20.156Z,102558.25
2023-01-25T08:17:46.559Z,102551.00
2023-01-25T08:20:13.932Z,102552.84
2023-01-25T08:22:40.319Z,102545.16
2023-01-25T08:25:07.703Z,102548.88
2023-01-25T08:27:34.298Z,102544.91
2023-01-25T08:30:00.775Z,102546.19
2023-01-25T08:32:27.173Z,102547.28
2023-01-25T08:34:53.542Z,102537.97
2023-01-25T08:37:20.021Z,102544.00
2023-01-25T08:39:46.454Z,102538.78
2023-01-25T08:42:12.827Z,102541.66
2023-01-25T08:44:39.228Z,102542.47
2023-01-25T08:47:06.070Z,102549.88
2023-01-25T08:49:34.427Z,102540.81
2023-01-25T08:52:00.989Z,102543.16
2023-01-25T08:54:27.498Z,102544.91
2023-01-25T08:56:54.006Z,102541.47
2023-01-25T08:59:20.472Z,102533.69
2023-01-25T09:01:46.835Z,102538.78
2023-01-25T09:04:13.340Z,102527.00
2023-01-25T09:06:39.823Z,102532.72
2023-01-25T09:09:08.398Z,102528.19
2023-01-25T09:11:37.113Z,102524.88
2023-01-25T09:14:04.636Z,102526.53
2023-01-25T09:16:31.330Z,102530.03
2023-01-25T09:19:00.357Z,102519.41
2023-01-25T09:21:27.732Z,102523.69
2023-01-25T09:24:09.666Z,102515.38
2023-01-25T09:26:39.271Z,102522.84
2023-01-25T09:29:08.233Z,102518.31
2023-01-25T09:31:35.574Z,102527.66
2023-01-25T09:34:02.425Z,102521.19
2023-01-25T09:36:28.795Z,102510.00
2023-01-25T09:38:55.845Z,102509.47
2023-01-25T09:41:49.889Z,102518.66
2023-01-25T09:44:34.495Z,102511.66
2023-01-25T09:47:31.063Z,102510.31
2023-01-25T09:50:32.551Z,102502.41
2023-01-25T09:53:06.447Z,102496.56
2023-01-25T09:55:33.844Z,102492.38
2023-01-25T09:58:02.633Z,102495.63
2023-01-25T10:00:41.475Z,102493.69
2023-01-25T10:03:25.905Z,102491.44
2023-01-25T10:05:56.823Z,102485.38
2023-01-25T10:08:53.688Z,102483.66
2023-01-25T10:11:25.011Z,102486.38
2023-01-25T10:13:51.802Z,102487.50
2023-01-25T10:16:32.964Z,102481.75
2023-01-25T10:19:20.807Z,102469.94
2023-01-25T10:21:57.236Z,102471.13
2023-01-25T10:24:26.384Z,102463.81
2023-01-25T10:26:57.336Z,102466.06
2023-01-25T10:29:28.920Z,102458.47
2023-01-25T10:32:16.109Z,102453.53
2023-01-25T10:34:56.379Z,102451.63
2023-01-25T10:37:28.288Z,102446.28
2023-01-25T10:40:13.513Z,102438.22
2023-01-25T10:42:50.543Z,102435.09
2023-01-25T10:45:17.517Z,102425.97
2023-01-25T10:47:48.423Z,102431.03
2023-01-25T10:50:46.490Z,102423.03
2023-01-25T10:53:26.717Z,102417.75
2023-01-25T10:56:10.742Z,102418.50
2023-01-25T10:58:39.703Z,102408.59
2023-01-25T11:01:08.835Z,102406.41
2023-01-25T11:03:38.661Z,102404.00
2023-01-25T11:06:06.456Z,102393.13
2023-01-25T11:08:34.854Z,102389.22
2023-01-25T11:11:21.512Z,102400.59
2023-01-25T11:13:48.186Z,102393.38
2023-01-25T11:16:38.851Z,102374.22
2023-01-25T11:19:41.958Z,102380.63
2023-01-25T11:22:20.475Z,102368.44
2023-01-25T11:24:47.490Z,102371.28
2023-01-25T11:27:20.363Z,102371.47
2023-01-25T11:30:08.306Z,102358.41
2023-01-25T11:32:35.122Z,102351.75
2023-01-25T11:35:01.987Z,102346.75
2023-01-25T11:37:56.165Z,102339.28
2023-01-25T11:40:37.623Z,102339.19
2023-01-25T11:43:44.167Z,102340.09
2023-01-25T11:46:50.438Z,102333.69
2023-01-25T11:49:28.846Z,102330.47
2023-01-25T11:52:16.557Z,102323.28
2023-01-25T11:54:56.786Z,102322.63
2023-01-25T11:57:35.249Z,102322.19
2023-01-25T12:00:22.714Z,102319.50
2023-01-25T12:03:07.966Z,102315.88
2023-01-25T12:05:59.898Z,102301.44
2023-01-25T12:08:40.836Z,102292.56
2023-01-25T12:11:26.008Z,102288.22
2023-01-25T12:14:04.501Z,102287.41
2023-01-25T12:16:53.494Z,102277.72
2023-01-25T12:19:23.020Z,102274.22
2023-01-25T12:22:06.027Z,102271.16
2023-01-25T12:24:37.489Z,102260.47
2023-01-25T12:27:19.030Z,102248.50
2023-01-25T12:29:52.303Z,102243.41
2023-01-25T12:32:32.605Z,102248.38
2023-01-25T12:35:23.830Z,102251.75
2023-01-25T12:37:52.989Z,102237.44
2023-01-25T12:40:25.836Z,102233.31
2023-01-25T12:42:56.835Z,102230.41
2023-01-25T12:45:31.659Z,102228.75
2023-01-25T12:48:00.932Z,102223.84
2023-01-25T12:50:51.318Z,102221.16
2023-01-25T12:53:36.229Z,102211.06
2023-01-25T12:56:06.562Z,102211.06
2023-01-25T12:58:44.207Z,102197.28
2023-01-25T13:01:22.679Z,102200.59
2023-01-25T13:04:28.334Z,102193.13
2023-01-25T13:07:20.715Z,102189.09
2023-01-25T13:10:23.597Z,102184.84
2023-01-25T13:12:57.829Z,102187.19
2023-01-25T13:15:44.731Z,102182.84
2023-01-25T13:18:29.655Z,102171.50
2023-01-25T13:20:58.034Z,102171.72
2023-01-25T13:23:32.720Z,102167.66
2023-01-25T13:26:20.904Z,102167.47
2023-01-25T13:28:52.608Z,102158.19
2023-01-25T13:31:59.044Z,102151.41
2023-01-25T13:34:35.569Z,102140.69
2023-01-25T13:37:42.639Z,102132.00
2023-01-25T13:40:31.366Z,102131.16
2023-01-25T13:43:01.987Z,102135.13
2023-01-25T13:45:29.498Z,102132.00
2023-01-25T13:48:19.826Z,102117.00
2023-01-25T13:50:53.314Z,102113.69
2023-01-25T13:53:23.440Z,102110.81
2023-01-25T13:55:53.593Z,102109.16
2023-01-25T13:58:22.821Z,102105.06
2023-01-25T14:01:13.095Z,102112.13
2023-01-25T14:03:56.806Z,102112.13
2023-01-25T14:06:31.960Z,102108.00
2023-01-25T14:09:03.049Z,102098.94
2023-01-25T14:11:32.133Z,102098.50
2023-01-25T14:14:18.762Z,102088.59
2023-01-25T14:16:45.427Z,102090.91
2023-01-25T14:19:26.468Z,102089.03
2023-01-25T14:22:27.364Z,102086.16
2023-01-25T14:25:15.476Z,102085.53
2023-01-25T14:27:53.807Z,102085.97
2023-01-25T14:30:26.297Z,102083.53
2023-01-25T14:32:58.998Z,102075.88
2023-01-25T14:35:53.837Z,102074.66
2023-01-25T14:38:34.657Z,102072.56
2023-01-25T14:41:16.562Z,102065.78
2023-01-25T14:43:46.099Z,102058.97
2023-01-25T14:46:26.659Z,102053.59
2023-01-25T14:49:12.996Z,102050.91
2023-01-25T14:51:44.969Z,102050.09
2023-01-25T14:54:19.799Z,102042.25
2023-01-25T14:56:49.501Z,102042.25
2023-01-25T14:59:41.666Z,102037.94
2023-01-25T15:02:29.175Z,102040.63
2023-01-25T15:05:04.860Z,102027.81
2023-01-25T15:08:06.396Z,102032.34
2023-01-25T15:10:37.293Z,102022.66
2023-01-25T15:13:14.080Z,102024.31
2023-01-25T15:15:59.936Z,102020.78
2023-01-25T15:18:52.332Z,102011.09
2023-01-25T15:21:19.826Z,102014.22
2023-01-25T15:23:48.807Z,102013.34
2023-01-25T15:26:21.500Z,102014.19
2023-01-25T15:28:49.706Z,102011.09
2023-01-25T15:31:37.276Z,102001.41
2023-01-25T15:34:04.714Z,101995.38
2023-01-25T15:36:32.808Z,101995.81
2023-01-25T15:38:59.604Z,101993.72
2023-01-25T15:41:26.058Z,101986.13
2023-01-25T15:43:52.541Z,101988.38
2023-01-25T15:46:25.003Z,101984.25
2023-01-25T15:48:51.911Z,101980.16
2023-01-25T15:51:19.111Z,101972.50
2023-01-25T15:53:46.733Z,101970.84
2023-01-25T15:56:16.185Z,101975.00
2023-01-25T15:58:46.124Z,101978.94
2023-01-25T16:01:12.946Z,101977.66
2023-01-25T16:03:41.473Z,101973.94
2023-01-25T16:06:32.141Z,101974.34
2023-01-25T16:09:00.151Z,101970.88
2023-01-25T16:11:27.509Z,101973.75
2023-01-25T16:13:54.044Z,101970.03
2023-01-25T16:16:23.223Z,101972.72
2023-01-25T16:18:50.120Z,101970.84
2023-01-25T16:21:17.062Z,101962.78
2023-01-25T16:23:43.579Z,101960.75
2023-01-25T16:26:23.294Z,101962.19
2023-01-25T16:28:49.796Z,101951.88
2023-01-25T16:31:31.443Z,101958.47
2023-01-25T16:33:58.872Z,101959.69
2023-01-25T16:36:25.523Z,101957.44
2023-01-25T16:38:52.424Z,101954.97
2023-01-25T16:41:19.005Z,101943.84
2023-01-25T16:43:48.026Z,101951.69
2023-01-25T16:46:20.247Z,101952.50
2023-01-25T16:48:48.665Z,101946.75
2023-01-25T16:51:19.623Z,101947.97
2023-01-25T16:53:47.182Z,101937.25
2023-01-25T16:56:22.042Z,101932.91
2023-01-25T16:58:50.129Z,101924.47
2023-01-25T17:01:18.606Z,101926.53
2023-01-25T17:03:45.448Z,101927.34
2023-01-25T17:06:23.797Z,101926.94
2023-01-25T17:08:51.324Z,101920.94
2023-01-25T17:11:22.616Z,101923.44
2023-01-25T17:13:53.718Z,101917.03
2023-01-25T17:16:21.838Z,101913.53
2023-01-25T17:18:48.458Z,101909.41
2023-01-25T17:21:15.091Z,101916.63
2023-01-25T17:23:41.979Z,101907.16
2023-01-25T17:26:13.105Z,101911.69
2023-01-25T17:28:40.114Z,101903.41
2023-01-25T17:31:14.401Z,101913.94
2023-01-25T17:33:41.295Z,101906.31
2023-01-25T17:36:09.195Z,101898.06
2023-01-25T17:38:35.710Z,101901.34
2023-01-25T17:41:06.306Z,101897.88
2023-01-25T17:43:34.476Z,101909.44
2023-01-25T17:46:11.373Z,101894.56
2023-01-25T17:48:37.821Z,101890.25
2023-01-25T17:51:04.760Z,101889.81
2023-01-25T17:53:31.200Z,101889.00
2023-01-25T17:56:02.907Z,101879.91
2023-01-25T17:58:30.444Z,101879.91
2023-01-25T18:01:05.157Z,101874.16
2023-01-25T18:03:39.113Z,101866.13
2023-01-25T18:06:09.407Z,101869.63
2023-01-25T18:08:43.801Z,101864.28
2023-01-25T18:11:12.614Z,101853.97
2023-01-25T18:13:40.809Z,101863.63
2023-01-25T18:16:09.428Z,101856.44
2023-01-25T18:18:41.667Z,101855.56
2023-01-25T18:21:11.011Z,101857.44
2023-01-25T18:23:38.212Z,101854.16
2023-01-25T18:26:06.467Z,101844.03
2023-01-25T18:28:33.083Z,101830.03
2023-01-25T18:31:02.521Z,101831.84
2023-01-25T18:33:29.390Z,101823.84
2023-01-25T18:35:57.391Z,101822.19
2023-01-25T18:38:24.252Z,101823.00
2023-01-25T18:40:52.789Z,101819.09
2023-01-25T18:43:20.060Z,101821.97
2023-01-25T18:45:57.088Z,101817.84
2023-01-25T18:48:30.521Z,101826.91
2023-01-25T18:51:03.922Z,101829.59
2023-01-25T18:53:31.953Z,101821.75
2023-01-25T18:56:03.277Z,101810.25
2023-01-25T18:58:34.157Z,101808.16
2023-01-25T19:01:05.964Z,101817.03
2023-01-25T19:03:32.817Z,101806.31
2023-01-25T19:05:59.341Z,101817.03
2023-01-25T19:08:27.325Z,101807.97
2023-01-25T19:11:05.855Z,101805.50
2023-01-25T19:13:37.095Z,101805.94
2023-01-25T19:16:08.844Z,101794.97
2023-01-25T19:18:37.361Z,101802.63
2023-01-25T19:21:08.768Z,101795.22
2023-01-25T19:23:37.035Z,101796.03
2023-01-25T19:26:04.818Z,101789.44
2023-01-25T19:28:31.525Z,101789.03
2023-01-25T19:31:15.379Z,101782.66
2023-01-25T19:33:42.640Z,101787.78
2023-01-25T19:36:15.375Z,101783.06
2023-01-25T19:38:42.792Z,101778.31
2023-01-25T19:41:18.707Z,101781.22
2023-01-25T19:43:45.652Z,101784.50
2023-01-25T19:46:14.514Z,101775.25
2023-01-25T19:48:42.274Z,101778.31
2023-01-25T19:51:11.632Z,101767.59
2023-01-25T19:53:38.326Z,101768.44
2023-01-25T19:56:06.130Z,101764.94
2023-01-25T19:58:32.728Z,101759.38
2023-01-25T20:01:10.002Z,101760.59
2023-01-25T20:03:37.362Z,101752.97
2023-01-25T20:06:07.017Z,101755.66
2023-01-25T20:08:36.037Z,101743.50
2023-01-25T20:11:20.632Z,101740.41
2023-01-25T20:13:48.571Z,101738.53
2023-01-25T20:16:18.372Z,101728.47
2023-01-25T20:18:46.330Z,101726.38
2023-01-25T20:21:16.302Z,101717.13
2023-01-25T20:23:44.543Z,101705.38
2023-01-25T20:26:14.455Z,101706.19
2023-01-25T20:28:42.455Z,101714.03
2023-01-25T20:31:27.199Z,101708.06
2023-01-25T20:33:56.037Z,101696.09
2023-01-25T20:36:23.369Z,101690.53
2023-01-25T20:38:50.242Z,101681.28
2023-01-25T20:41:18.405Z,101689.31
2023-01-25T20:43:50.804Z,101697.72
2023-01-25T20:46:18.805Z,101692.41
2023-01-25T20:48:45.560Z,101680.66
2023-01-25T20:51:16.791Z,101680.25
2023-01-25T20:53:45.073Z,101677.97
2023-01-25T20:56:13.186Z,101688.69
2023-01-25T20:58:39.871Z,101683.78
2023-01-25T21:01:18.042Z,101679.84
2023-01-25T21:03:44.484Z,101670.97
2023-01-25T21:06:12.025Z,101675.28
2023-01-25T21:08:38.560Z,101671.19
2023-01-25T21:11:05.511Z,101671.78
2023-01-25T21:13:32.022Z,101679.00
2023-01-25T21:16:01.145Z,101674.69
2023-01-25T21:18:29.178Z,101674.69
2023-01-25T21:21:09.273Z,101675.91
2023-01-25T21:23:38.139Z,101670.38
2023-01-25T21:26:05.834Z,101669.34
2023-01-25T21:28:33.461Z,101673.03
2023-01-25T21:31:10.977Z,101680.66
2023-01-25T21:33:38.052Z,101671.78
2023-01-25T21:36:08.645Z,101669.94
2023-01-25T21:38:36.034Z,101660.88
2023-01-25T21:41:04.613Z,101662.72
2023-01-25T21:43:52.561Z,101659.03
2023-01-25T21:46:26.662Z,101663.16
2023-01-25T21:49:12.742Z,101656.97
2023-01-25T21:51:51.451Z,101664.78
2023-01-25T21:54:26.129Z,101656.75
2023-01-25T21:56:55.149Z,101649.75
2023-01-25T21:59:22.527Z,101646.03
2023-01-25T22:01:49.391Z,101646.47
2023-01-25T22:04:17.806Z,101645.00
2023-01-25T22:06:45.161Z,101646.66
2023-01-25T22:09:13.628Z,101650.56
2023-01-25T22:11:40.612Z,101643.97
2023-01-25T22:14:07.296Z,101638.81
2023-01-25T22:16:33.714Z,101641.94
2023-01-25T22:19:00.503Z,101633.88
2023-01-25T22:21:30.758Z,101638.00
2023-01-25T22:23:58.670Z,101623.38
2023-01-25T22:26:29.671Z,101616.56
2023-01-25T22:28:59.979Z,101614.13
2023-01-25T22:31:30.255Z,101624.22
2023-01-25T22:33:59.280Z,101609.16
2023-01-25T22:36:28.377Z,101608.78
2023-01-25T22:38:55.162Z,101599.50
2023-01-25T22:41:24.158Z,101594.56
2023-01-25T22:43:50.714Z,101593.53
2023-01-25T22:46:22.484Z,101580.97
2023-01-25T22:48:49.295Z,101594.75
2023-01-25T22:51:22.177Z,101586.94
2023-01-25T22:53:49.874Z,101591.06
2023-01-25T22:56:19.440Z,101581.38
2023-01-25T22:58:47.323Z,101586.31
2023-01-25T23:01:17.311Z,101588.00
2023-01-25T23:03:44.128Z,101580.34
2023-01-25T23:06:16.856Z,101572.97
2023-01-25T23:08:44.111Z,101562.47
2023-01-25T23:11:16.986Z,101563.06
2023-01-25T23:14:03.208Z,101564.09
2023-01-25T23:16:30.346Z,101564.31
2023-01-25T23:18:56.827Z,101566.38
2023-01-25T23:21:27.282Z,101563.06
2023-01-25T23:24:00.575Z,101558.13
2023-01-25T23:26:27.683Z,101557.94
2023-01-25T23:28:57.100Z,101559.97
2023-01-25T23:31:25.221Z,101558.75
2023-01-25T23:33:54.234Z,101548.25
2023-01-25T23:36:23.999Z,101550.91
2023-01-25T23:38:54.651Z,101557.09
2023-01-25T23:41:23.613Z,101551.53
2023-01-25T23:43:50.256Z,101543.50
2023-01-25T23:46:17.451Z,101545.78
2023-01-25T23:48:45.558Z,101565.56
2023-01-25T23:51:13.828Z,101555.03
2023-01-25T23:53:41.210Z,101563.06
2023-01-25T23:56:12.323Z,101550.75
2023-01-25T23:58:39.654Z,101557.31
